sensor_id;sensor_type;location;lat;lon;timestamp;temperature;humidity
9987;DHT22;5033;46.310;11.214;2022-12-18T00:02:16;1.30;99.90
9987;DHT22;5033;46.310;11.214;2022-12-18T00:04:43;1.30;99.90
9987;DHT22;5033;46.310;11.214;2022-12-18T00:07:11;1.30;99.90
9987;DHT22;5033;46.310;11.214;2022-12-18T00:09:38;1.30;99.90
9987;DHT22;5033;46.310;11.214;2022-12-18T00:12:07;1.30;99.90
9987;DHT22;5033;46.310;11.214;2022-12-18T00:14:35;1.30;99.90
9987;DHT22;5033;46.310;11.214;2022-12-18T00:17:02;1.30;99.90
9987;DHT22;5033;46.310;11.214;2022-12-18T00:19:29;1.30;99.90
9987;DHT22;5033;46.310;11.214;2022-12-18T00:21:57;1.30;99.90
9987;DHT22;5033;46.310;11.214;2022-12-18T00:24:25;1.20;99.90
9987;DHT22;5033;46.310;11.214;2022-12-18T00:26:52;1.20;99.90
9987;DHT22;5033;46.310;11.214;2022-12-18T00:29:21;1.20;99.90
9987;DHT22;5033;46.310;11.214;2022-12-18T00:31:48;1.20;99.90
9987;DHT22;5033;46.310;11.214;2022-12-18T00:34:15;1.10;99.90
9987;DHT22;5033;46.310;11.214;2022-12-18T00:36:43;1.10;99.90
9987;DHT22;5033;46.310;11.214;2022-12-18T00:39:10;1.10;99.90
9987;DHT22;5033;46.310;11.214;2022-12-18T00:41:38;1.10;99.90
9987;DHT22;5033;46.310;11.214;2022-12-18T00:44:24;1.10;99.90
9987;DHT22;5033;46.310;11.214;2022-12-18T00:46:51;1.10;99.90
9987;DHT22;5033;46.310;11.214;2022-12-18T00:49:19;1.10;99.90
9987;DHT22;5033;46.310;11.214;2022-12-18T00:51:47;1.10;99.90
9987;DHT22;5033;46.310;11.214;2022-12-18T00:54:15;1.10;99.90
9987;DHT22;5033;46.310;11.214;2022-12-18T00:56:43;1.00;99.90
9987;DHT22;5033;46.310;11.214;2022-12-18T00:59:10;1.00;99.90
9987;DHT22;5033;46.310;11.214;2022-12-18T01:01:39;1.00;99.90
9987;DHT22;5033;46.310;11.214;2022-12-18T01:04:06;1.00;99.90
9987;DHT22;5033;46.310;11.214;2022-12-18T01:06:34;0.90;99.90
9987;DHT22;5033;46.310;11.214;2022-12-18T01:09:01;0.90;99.90
9987;DHT22;5033;46.310;11.214;2022-12-18T01:11:28;0.80;99.90
9987;DHT22;5033;46.310;11.214;2022-12-18T01:13:56;0.90;99.90
9987;DHT22;5033;46.310;11.214;2022-12-18T01:16:23;0.90;99.90
9987;DHT22;5033;46.310;11.214;2022-12-18T01:18:53;0.90;99.90
9987;DHT22;5033;46.310;11.214;2022-12-18T01:21:21;0.80;99.90
9987;DHT22;5033;46.310;11.214;2022-12-18T01:23:52;0.80;99.90
9987;DHT22;5033;46.310;11.214;2022-12-18T01:26:22;0.80;99.90
9987;DHT22;5033;46.310;11.214;2022-12-18T01:28:49;0.70;99.90
9987;DHT22;5033;46.310;11.214;2022-12-18T01:31:18;0.70;99.90
9987;DHT22;5033;46.310;11.214;2022-12-18T01:33:47;0.70;99.90
9987;DHT22;5033;46.310;11.214;2022-12-18T01:36:18;0.70;99.90
9987;DHT22;5033;46.310;11.214;2022-12-18T01:38:46;0.70;99.90
9987;DHT22;5033;46.310;11.214;2022-12-18T01:41:14;0.60;99.90
9987;DHT22;5033;46.310;11.214;2022-12-18T01:43:48;0.60;99.90
9987;DHT22;5033;46.310;11.214;2022-12-18T01:46:17;0.60;99.90
9987;DHT22;5033;46.310;11.214;2022-12-18T01:48:45;0.60;99.90
9987;DHT22;5033;46.310;11.214;2022-12-18T01:51:13;0.60;99.90
9987;DHT22;5033;46.310;11.214;2022-12-18T01:53:44;0.60;99.90
9987;DHT22;5033;46.310;11.214;2022-12-18T01:56:14;0.60;99.90
9987;DHT22;5033;46.310;11.214;2022-12-18T01:58:48;0.50;99.90
9987;DHT22;5033;46.310;11.214;2022-12-18T02:01:17;0.50;99.90
9987;DHT22;5033;46.310;11.214;2022-12-18T02:03:45;0.50;99.90
9987;DHT22;5033;46.310;11.214;2022-12-18T02:06:15;0.50;99.90
9987;DHT22;5033;46.310;11.214;2022-12-18T02:08:55;0.50;99.90
9987;DHT22;5033;46.310;11.214;2022-12-18T02:11:33;0.50;99.90
9987;DHT22;5033;46.310;11.214;2022-12-18T02:14:07;0.60;99.90
9987;DHT22;5033;46.310;11.214;2022-12-18T02:16:39;0.60;99.90
9987;DHT22;5033;46.310;11.214;2022-12-18T02:19:20;0.60;99.90
9987;DHT22;5033;46.310;11.214;2022-12-18T02:21:57;0.60;99.90
9987;DHT22;5033;46.310;11.214;2022-12-18T02:24:35;0.60;99.90
9987;DHT22;5033;46.310;11.214;2022-12-18T02:27:08;0.60;99.90
9987;DHT22;5033;46.310;11.214;2022-12-18T02:29:40;0.60;99.90
9987;DHT22;5033;46.310;11.214;2022-12-18T02:32:15;0.60;99.90
9987;DHT22;5033;46.310;11.214;2022-12-18T02:34:44;0.60;99.90
9987;DHT22;5033;46.310;11.214;2022-12-18T02:37:16;0.50;99.90
9987;DHT22;5033;46.310;11.214;2022-12-18T02:39:46;0.50;99.90
9987;DHT22;5033;46.310;11.214;2022-12-18T02:42:16;0.60;99.90
9987;DHT22;5033;46.310;11.214;2022-12-18T02:44:45;0.50;99.90
9987;DHT22;5033;46.310;11.214;2022-12-18T02:47:16;0.50;99.90
9987;DHT22;5033;46.310;11.214;2022-12-18T02:49:51;0.50;99.90
9987;DHT22;5033;46.310;11.214;2022-12-18T02:52:27;0.60;99.90
9987;DHT22;5033;46.310;11.214;2022-12-18T02:55:05;0.60;99.90
9987;DHT22;5033;46.310;11.214;2022-12-18T02:57:40;0.60;99.90
9987;DHT22;5033;46.310;11.214;2022-12-18T03:00:13;0.50;99.90
9987;DHT22;5033;46.310;11.214;2022-12-18T03:02:44;0.50;99.90
9987;DHT22;5033;46.310;11.214;2022-12-18T03:05:16;0.50;99.90
9987;DHT22;5033;46.310;11.214;2022-12-18T03:07:49;0.50;99.90
9987;DHT22;5033;46.310;11.214;2022-12-18T03:10:23;0.50;99.90
9987;DHT22;5033;46.310;11.214;2022-12-18T03:12:57;0.40;99.90
9987;DHT22;5033;46.310;11.214;2022-12-18T03:15:27;0.40;99.90
9987;DHT22;5033;46.310;11.214;2022-12-18T03:18:01;0.30;99.90
9987;DHT22;5033;46.310;11.214;2022-12-18T03:20:31;0.30;99.90
9987;DHT22;5033;46.310;11.214;2022-12-18T03:23:02;0.30;99.90
9987;DHT22;5033;46.310;11.214;2022-12-18T03:25:31;0.20;99.90
9987;DHT22;5033;46.310;11.214;2022-12-18T03:28:02;0.30;99.90
9987;DHT22;5033;46.310;11.214;2022-12-18T03:30:32;0.20;99.90
9987;DHT22;5033;46.310;11.214;2022-12-18T03:33:07;0.20;99.90
9987;DHT22;5033;46.310;11.214;2022-12-18T03:35:38;0.20;99.90
9987;DHT22;5033;46.310;11.214;2022-12-18T03:38:06;0.20;99.90
9987;DHT22;5033;46.310;11.214;2022-12-18T03:40:43;0.20;99.90
9987;DHT22;5033;46.310;11.214;2022-12-18T03:43:19;0.20;99.90
9987;DHT22;5033;46.310;11.214;2022-12-18T03:45:52;0.20;99.90
9987;DHT22;5033;46.310;11.214;2022-12-18T03:48:24;0.20;99.90
9987;DHT22;5033;46.310;11.214;2022-12-18T03:50:57;0.20;99.90
9987;DHT22;5033;46.310;11.214;2022-12-18T03:53:31;0.20;99.90
9987;DHT22;5033;46.310;11.214;2022-12-18T03:56:00;0.20;99.90
9987;DHT22;5033;46.310;11.214;2022-12-18T03:58:32;0.10;99.90
9987;DHT22;5033;46.310;11.214;2022-12-18T04:01:03;0.10;99.90
9987;DHT22;5033;46.310;11.214;2022-12-18T04:03:32;0.20;99.90
9987;DHT22;5033;46.310;11.214;2022-12-18T04:06:02;0.20;99.90
9987;DHT22;5033;46.310;11.214;2022-12-18T04:08:30;0.20;99.90
9987;DHT22;5033;46.310;11.214;2022-12-18T04:10:59;0.20;99.90
9987;DHT22;5033;46.310;11.214;2022-12-18T04:13:31;0.10;99.90
9987;DHT22;5033;46.310;11.214;2022-12-18T04:16:00;0.10;99.90
9987;DHT22;5033;46.310;11.214;2022-12-18T04:18:27;0.10;99.90
9987;DHT22;5033;46.310;11.214;2022-12-18T04:20:54;0.00;99.90
9987;DHT22;5033;46.310;11.214;2022-12-18T04:23:22;0.00;99.90
9987;DHT22;5033;46.310;11.214;2022-12-18T04:25:49;0.00;99.90
9987;DHT22;5033;46.310;11.214;2022-12-18T04:28:16;0.00;99.90
9987;DHT22;5033;46.310;11.214;2022-12-18T04:30:45;-0.10;99.90
9987;DHT22;5033;46.310;11.214;2022-12-18T04:33:17;-0.10;99.90
9987;DHT22;5033;46.310;11.214;2022-12-18T04:35:44;-0.10;99.90
9987;DHT22;5033;46.310;11.214;2022-12-18T04:38:12;-0.10;99.90
9987;DHT22;5033;46.310;11.214;2022-12-18T04:40:40;-0.20;99.90
9987;DHT22;5033;46.310;11.214;2022-12-18T04:43:07;-0.20;99.90
9987;DHT22;5033;46.310;11.214;2022-12-18T04:45:35;-0.20;99.90
9987;DHT22;5033;46.310;11.214;2022-12-18T04:48:04;-0.20;99.90
9987;DHT22;5033;46.310;11.214;2022-12-18T04:50:32;-0.20;99.90
9987;DHT22;5033;46.310;11.214;2022-12-18T04:52:59;-0.20;99.90
9987;DHT22;5033;46.310;11.214;2022-12-18T04:55:27;-0.20;99.90
9987;DHT22;5033;46.310;11.214;2022-12-18T04:57:54;-0.20;99.90
9987;DHT22;5033;46.310;11.214;2022-12-18T05:00:22;-0.20;99.90
9987;DHT22;5033;46.310;11.214;2022-12-18T05:02:50;-0.30;99.90
9987;DHT22;5033;46.310;11.214;2022-12-18T05:05:19;-0.20;99.90
9987;DHT22;5033;46.310;11.214;2022-12-18T05:07:46;-0.30;99.90
9987;DHT22;5033;46.310;11.214;2022-12-18T05:10:13;-0.20;99.90
9987;DHT22;5033;46.310;11.214;2022-12-18T05:12:40;-0.20;99.90
9987;DHT22;5033;46.310;11.214;2022-12-18T05:15:21;-0.20;99.90
9987;DHT22;5033;46.310;11.214;2022-12-18T05:17:49;-0.30;99.90
9987;DHT22;5033;46.310;11.214;2022-12-18T05:20:17;-0.30;99.90
9987;DHT22;5033;46.310;11.214;2022-12-18T05:22:45;-0.30;99.90
9987;DHT22;5033;46.310;11.214;2022-12-18T05:25:12;-0.30;99.90
9987;DHT22;5033;46.310;11.214;2022-12-18T05:27:39;-0.30;99.90
9987;DHT22;5033;46.310;11.214;2022-12-18T05:30:08;-0.30;99.90
9987;DHT22;5033;46.310;11.214;2022-12-18T05:32:35;-0.40;99.90
9987;DHT22;5033;46.310;11.214;2022-12-18T05:35:04;-0.40;99.90
9987;DHT22;5033;46.310;11.214;2022-12-18T05:37:33;-0.50;99.90
9987;DHT22;5033;46.310;11.214;2022-12-18T05:40:01;-0.40;99.90
9987;DHT22;5033;46.310;11.214;2022-12-18T05:42:28;-0.40;99.90
9987;DHT22;5033;46.310;11.214;2022-12-18T05:44:55;-0.40;99.90
9987;DHT22;5033;46.310;11.214;2022-12-18T05:47:22;-0.40;99.90
9987;DHT22;5033;46.310;11.214;2022-12-18T05:49:50;-0.40;99.90
9987;DHT22;5033;46.310;11.214;2022-12-18T05:52:17;-0.40;99.90
9987;DHT22;5033;46.310;11.214;2022-12-18T05:54:46;-0.50;99.90
9987;DHT22;5033;46.310;11.214;2022-12-18T05:57:13;-0.50;99.90
9987;DHT22;5033;46.310;11.214;2022-12-18T05:59:40;-0.40;99.90
9987;DHT22;5033;46.310;11.214;2022-12-18T06:02:08;-0.40;99.90
9987;DHT22;5033;46.310;11.214;2022-12-18T06:04:35;-0.40;99.90
9987;DHT22;5033;46.310;11.214;2022-12-18T06:07:02;-0.50;99.90
9987;DHT22;5033;46.310;11.214;2022-12-18T06:09:30;-0.50;99.90
9987;DHT22;5033;46.310;11.214;2022-12-18T06:11:59;-0.50;99.90
9987;DHT22;5033;46.310;11.214;2022-12-18T06:14:26;-0.50;99.90
9987;DHT22;5033;46.310;11.214;2022-12-18T06:16:53;-0.60;99.90
9987;DHT22;5033;46.310;11.214;2022-12-18T06:19:20;-0.60;99.90
9987;DHT22;5033;46.310;11.214;2022-12-18T06:21:48;-0.60;99.90
9987;DHT22;5033;46.310;11.214;2022-12-18T06:24:16;-0.60;99.90
9987;DHT22;5033;46.310;11.214;2022-12-18T06:26:43;-0.60;99.90
9987;DHT22;5033;46.310;11.214;2022-12-18T06:29:12;-0.60;99.90
9987;DHT22;5033;46.310;11.214;2022-12-18T06:31:45;-0.50;99.90
9987;DHT22;5033;46.310;11.214;2022-12-18T06:34:12;-0.60;99.90
9987;DHT22;5033;46.310;11.214;2022-12-18T06:36:40;-0.60;99.90
9987;DHT22;5033;46.310;11.214;2022-12-18T06:39:07;-0.60;99.90
9987;DHT22;5033;46.310;11.214;2022-12-18T06:41:34;-0.60;99.90
9987;DHT22;5033;46.310;11.214;2022-12-18T06:44:02;-0.60;99.90
9987;DHT22;5033;46.310;11.214;2022-12-18T06:46:31;-0.60;99.90
9987;DHT22;5033;46.310;11.214;2022-12-18T06:48:59;-0.60;99.90
9987;DHT22;5033;46.310;11.214;2022-12-18T06:51:26;-0.60;99.90
9987;DHT22;5033;46.310;11.214;2022-12-18T06:53:53;-0.60;99.90
9987;DHT22;5033;46.310;11.214;2022-12-18T06:56:21;-0.60;99.90
9987;DHT22;5033;46.310;11.214;2022-12-18T06:58:48;-0.60;99.90
9987;DHT22;5033;46.310;11.214;2022-12-18T07:01:16;-0.60;99.90
9987;DHT22;5033;46.310;11.214;2022-12-18T07:03:45;-0.60;99.90
9987;DHT22;5033;46.310;11.214;2022-12-18T07:06:16;-0.60;99.90
9987;DHT22;5033;46.310;11.214;2022-12-18T07:08:44;-0.60;99.90
9987;DHT22;5033;46.310;11.214;2022-12-18T07:11:11;-0.60;99.90
9987;DHT22;5033;46.310;11.214;2022-12-18T07:13:39;-0.20;99.90
9987;DHT22;5033;46.310;11.214;2022-12-18T07:16:08;0.40;99.90
9987;DHT22;5033;46.310;11.214;2022-12-18T07:18:35;0.80;99.90
9987;DHT22;5033;46.310;11.214;2022-12-18T07:21:05;0.70;99.90
9987;DHT22;5033;46.310;11.214;2022-12-18T07:23:33;0.60;99.90
9987;DHT22;5033;46.310;11.214;2022-12-18T07:26:03;0.40;99.90
9987;DHT22;5033;46.310;11.214;2022-12-18T07:28:31;0.20;99.90
9987;DHT22;5033;46.310;11.214;2022-12-18T07:31:02;0.00;99.90
9987;DHT22;5033;46.310;11.214;2022-12-18T07:33:30;0.00;99.90
9987;DHT22;5033;46.310;11.214;2022-12-18T07:35:59;-0.10;99.90
9987;DHT22;5033;46.310;11.214;2022-12-18T07:38:28;-0.10;99.90
9987;DHT22;5033;46.310;11.214;2022-12-18T07:41:00;-0.20;99.90
9987;DHT22;5033;46.310;11.214;2022-12-18T07:43:27;-0.20;99.90
9987;DHT22;5033;46.310;11.214;2022-12-18T07:45:55;-0.20;99.90
9987;DHT22;5033;46.310;11.214;2022-12-18T07:48:22;-0.20;99.90
9987;DHT22;5033;46.310;11.214;2022-12-18T07:50:49;-0.20;99.90
9987;DHT22;5033;46.310;11.214;2022-12-18T07:53:17;-0.10;99.90
9987;DHT22;5033;46.310;11.214;2022-12-18T07:55:46;-0.10;99.90
9987;DHT22;5033;46.310;11.214;2022-12-18T07:58:13;-0.20;99.90
9987;DHT22;5033;46.310;11.214;2022-12-18T08:00:40;-0.20;99.90
9987;DHT22;5033;46.310;11.214;2022-12-18T08:03:08;-0.20;99.90
9987;DHT22;5033;46.310;11.214;2022-12-18T08:05:35;-0.20;99.90
9987;DHT22;5033;46.310;11.214;2022-12-18T08:08:02;-0.10;99.90
9987;DHT22;5033;46.310;11.214;2022-12-18T08:10:30;0.00;99.90
9987;DHT22;5033;46.310;11.214;2022-12-18T08:12:59;0.00;99.90
9987;DHT22;5033;46.310;11.214;2022-12-18T08:15:26;0.00;99.90
9987;DHT22;5033;46.310;11.214;2022-12-18T08:17:56;0.40;99.90
9987;DHT22;5033;46.310;11.214;2022-12-18T08:20:23;1.60;99.90
9987;DHT22;5033;46.310;11.214;2022-12-18T08:22:51;2.80;99.90
9987;DHT22;5033;46.310;11.214;2022-12-18T08:25:19;3.80;99.90
9987;DHT22;5033;46.310;11.214;2022-12-18T08:27:46;4.50;99.90
9987;DHT22;5033;46.310;11.214;2022-12-18T08:30:15;5.20;99.90
9987;DHT22;5033;46.310;11.214;2022-12-18T08:32:43;5.90;99.90
9987;DHT22;5033;46.310;11.214;2022-12-18T08:35:10;6.50;99.90
9987;DHT22;5033;46.310;11.214;2022-12-18T08:37:38;6.80;99.90
9987;DHT22;5033;46.310;11.214;2022-12-18T08:40:07;7.00;99.90
9987;DHT22;5033;46.310;11.214;2022-12-18T08:42:34;7.30;99.90
9987;DHT22;5033;46.310;11.214;2022-12-18T08:45:21;7.60;99.90
9987;DHT22;5033;46.310;11.214;2022-12-18T08:47:48;7.90;99.90
9987;DHT22;5033;46.310;11.214;2022-12-18T08:50:15;8.30;99.90
9987;DHT22;5033;46.310;11.214;2022-12-18T08:52:44;9.00;99.90
9987;DHT22;5033;46.310;11.214;2022-12-18T08:55:11;9.60;99.90
9987;DHT22;5033;46.310;11.214;2022-12-18T08:57:39;10.00;99.90
9987;DHT22;5033;46.310;11.214;2022-12-18T09:00:07;10.70;99.90
9987;DHT22;5033;46.310;11.214;2022-12-18T09:02:37;11.00;99.90
9987;DHT22;5033;46.310;11.214;2022-12-18T09:05:05;11.50;99.90
9987;DHT22;5033;46.310;11.214;2022-12-18T09:07:32;12.00;99.90
9987;DHT22;5033;46.310;11.214;2022-12-18T09:10:00;12.50;99.90
9987;DHT22;5033;46.310;11.214;2022-12-18T09:12:27;13.20;99.90
9987;DHT22;5033;46.310;11.214;2022-12-18T09:14:54;14.20;99.90
9987;DHT22;5033;46.310;11.214;2022-12-18T09:17:22;15.30;99.30
9987;DHT22;5033;46.310;11.214;2022-12-18T09:19:51;16.30;95.90
9987;DHT22;5033;46.310;11.214;2022-12-18T09:22:19;17.50;92.90
9987;DHT22;5033;46.310;11.214;2022-12-18T09:24:46;18.40;86.10
9987;DHT22;5033;46.310;11.214;2022-12-18T09:27:14;18.90;81.40
9987;DHT22;5033;46.310;11.214;2022-12-18T09:29:41;19.50;76.10
9987;DHT22;5033;46.310;11.214;2022-12-18T09:32:10;19.60;74.80
9987;DHT22;5033;46.310;11.214;2022-12-18T09:34:38;19.70;71.30
9987;DHT22;5033;46.310;11.214;2022-12-18T09:37:07;19.70;67.10
9987;DHT22;5033;46.310;11.214;2022-12-18T09:39:34;19.40;68.80
9987;DHT22;5033;46.310;11.214;2022-12-18T09:42:01;19.60;66.50
9987;DHT22;5033;46.310;11.214;2022-12-18T09:44:32;19.90;67.10
9987;DHT22;5033;46.310;11.214;2022-12-18T09:47:06;20.10;61.80
9987;DHT22;5033;46.310;11.214;2022-12-18T09:49:39;20.20;62.70
9987;DHT22;5033;46.310;11.214;2022-12-18T09:52:14;20.10;62.40
9987;DHT22;5033;46.310;11.214;2022-12-18T09:54:46;20.10;63.50
9987;DHT22;5033;46.310;11.214;2022-12-18T09:57:15;19.60;62.90
9987;DHT22;5033;46.310;11.214;2022-12-18T09:59:47;18.60;64.70
9987;DHT22;5033;46.310;11.214;2022-12-18T10:02:19;17.40;66.50
9987;DHT22;5033;46.310;11.214;2022-12-18T10:04:56;16.10;70.40
9987;DHT22;5033;46.310;11.214;2022-12-18T10:07:41;14.90;74.30
9987;DHT22;5033;46.310;11.214;2022-12-18T10:10:22;14.20;77.30
9987;DHT22;5033;46.310;11.214;2022-12-18T10:13:00;13.40;81.20
9987;DHT22;5033;46.310;11.214;2022-12-18T10:15:34;12.90;83.40
9987;DHT22;5033;46.310;11.214;2022-12-18T10:18:14;12.50;85.40
9987;DHT22;5033;46.310;11.214;2022-12-18T10:20:46;12.00;89.00
9987;DHT22;5033;46.310;11.214;2022-12-18T10:23:21;12.10;89.80
9987;DHT22;5033;46.310;11.214;2022-12-18T10:25:55;12.30;89.00
9987;DHT22;5033;46.310;11.214;2022-12-18T10:28:25;12.40;90.60
9987;DHT22;5033;46.310;11.214;2022-12-18T10:30:53;12.30;89.30
9987;DHT22;5033;46.310;11.214;2022-12-18T10:33:23;11.80;90.00
9987;DHT22;5033;46.310;11.214;2022-12-18T10:35:51;11.40;91.00
9987;DHT22;5033;46.310;11.214;2022-12-18T10:38:24;11.40;91.10
9987;DHT22;5033;46.310;11.214;2022-12-18T10:40:55;11.50;91.50
9987;DHT22;5033;46.310;11.214;2022-12-18T10:43:24;11.80;91.40
9987;DHT22;5033;46.310;11.214;2022-12-18T10:46:04;12.10;91.30
9987;DHT22;5033;46.310;11.214;2022-12-18T10:48:34;12.20;90.80
9987;DHT22;5033;46.310;11.214;2022-12-18T10:51:03;12.40;90.80
9987;DHT22;5033;46.310;11.214;2022-12-18T10:53:34;12.30;91.40
9987;DHT22;5033;46.310;11.214;2022-12-18T10:56:05;12.20;91.60
9987;DHT22;5033;46.310;11.214;2022-12-18T10:58:34;12.20;91.80
9987;DHT22;5033;46.310;11.214;2022-12-18T11:01:08;12.10;91.40
9987;DHT22;5033;46.310;11.214;2022-12-18T11:03:37;11.90;92.10
9987;DHT22;5033;46.310;11.214;2022-12-18T11:06:08;12.00;92.00
9987;DHT22;5033;46.310;11.214;2022-12-18T11:08:38;12.20;92.00
9987;DHT22;5033;46.310;11.214;2022-12-18T11:11:16;12.40;91.10
9987;DHT22;5033;46.310;11.214;2022-12-18T11:13:55;12.30;91.30
9987;DHT22;5033;46.310;11.214;2022-12-18T11:16:25;12.30;91.60
9987;DHT22;5033;46.310;11.214;2022-12-18T11:18:53;12.20;91.90
9987;DHT22;5033;46.310;11.214;2022-12-18T11:21:21;12.30;92.00
9987;DHT22;5033;46.310;11.214;2022-12-18T11:23:52;12.40;91.50
9987;DHT22;5033;46.310;11.214;2022-12-18T11:26:20;12.40;91.50
9987;DHT22;5033;46.310;11.214;2022-12-18T11:28:50;12.20;91.40
9987;DHT22;5033;46.310;11.214;2022-12-18T11:31:21;11.90;91.50
9987;DHT22;5033;46.310;11.214;2022-12-18T11:34:01;12.00;92.00
9987;DHT22;5033;46.310;11.214;2022-12-18T11:36:33;11.90;91.80
9987;DHT22;5033;46.310;11.214;2022-12-18T11:39:09;11.90;92.10
9987;DHT22;5033;46.310;11.214;2022-12-18T11:41:45;11.90;91.80
9987;DHT22;5033;46.310;11.214;2022-12-18T11:44:38;11.90;92.10
9987;DHT22;5033;46.310;11.214;2022-12-18T11:47:13;11.90;91.80
9987;DHT22;5033;46.310;11.214;2022-12-18T11:49:42;11.80;91.50
9987;DHT22;5033;46.310;11.214;2022-12-18T11:52:16;11.90;91.60
9987;DHT22;5033;46.310;11.214;2022-12-18T11:54:47;11.80;91.90
9987;DHT22;5033;46.310;11.214;2022-12-18T11:57:27;11.80;91.40
9987;DHT22;5033;46.310;11.214;2022-12-18T12:00:02;11.40;90.80
9987;DHT22;5033;46.310;11.214;2022-12-18T12:02:45;11.10;90.50
9987;DHT22;5033;46.310;11.214;2022-12-18T12:05:31;10.80;91.40
9987;DHT22;5033;46.310;11.214;2022-12-18T12:08:11;10.60;91.80
9987;DHT22;5033;46.310;11.214;2022-12-18T12:10:51;10.60;92.10
9987;DHT22;5033;46.310;11.214;2022-12-18T12:13:33;10.60;92.50
9987;DHT22;5033;46.310;11.214;2022-12-18T12:16:13;10.60;92.70
9987;DHT22;5033;46.310;11.214;2022-12-18T12:18:54;10.60;93.20
9987;DHT22;5033;46.310;11.214;2022-12-18T12:21:31;10.50;93.10
9987;DHT22;5033;46.310;11.214;2022-12-18T12:24:12;10.50;93.10
9987;DHT22;5033;46.310;11.214;2022-12-18T12:26:52;10.70;92.90
9987;DHT22;5033;46.310;11.214;2022-12-18T12:29:33;10.50;92.60
9987;DHT22;5033;46.310;11.214;2022-12-18T12:32:16;10.20;92.40
9987;DHT22;5033;46.310;11.214;2022-12-18T12:34:54;10.10;93.10
9987;DHT22;5033;46.310;11.214;2022-12-18T12:37:33;9.90;93.30
9987;DHT22;5033;46.310;11.214;2022-12-18T12:40:05;9.60;94.00
9987;DHT22;5033;46.310;11.214;2022-12-18T12:42:38;9.60;94.60
9987;DHT22;5033;46.310;11.214;2022-12-18T12:45:26;9.50;94.80
9987;DHT22;5033;46.310;11.214;2022-12-18T12:47:58;9.60;94.90
9987;DHT22;5033;46.310;11.214;2022-12-18T12:50:27;9.60;95.00
9987;DHT22;5033;46.310;11.214;2022-12-18T12:52:56;9.60;95.00
9987;DHT22;5033;46.310;11.214;2022-12-18T12:55:26;9.60;94.90
9987;DHT22;5033;46.310;11.214;2022-12-18T12:58:00;9.70;94.90
9987;DHT22;5033;46.310;11.214;2022-12-18T13:00:36;9.70;95.10
9987;DHT22;5033;46.310;11.214;2022-12-18T13:03:13;10.00;94.90
9987;DHT22;5033;46.310;11.214;2022-12-18T13:05:48;10.10;95.20
9987;DHT22;5033;46.310;11.214;2022-12-18T13:08:23;10.10;94.90
9987;DHT22;5033;46.310;11.214;2022-12-18T13:10:52;9.80;94.90
9987;DHT22;5033;46.310;11.214;2022-12-18T13:13:51;9.90;95.20
9987;DHT22;5033;46.310;11.214;2022-12-18T13:16:19;9.80;95.10
9987;DHT22;5033;46.310;11.214;2022-12-18T13:18:51;9.90;95.40
9987;DHT22;5033;46.310;11.214;2022-12-18T13:21:23;9.70;95.30
9987;DHT22;5033;46.310;11.214;2022-12-18T13:23:53;9.70;95.60
9987;DHT22;5033;46.310;11.214;2022-12-18T13:26:33;9.60;95.70
9987;DHT22;5033;46.310;11.214;2022-12-18T13:29:03;9.20;95.30
9987;DHT22;5033;46.310;11.214;2022-12-18T13:31:58;8.70;96.00
9987;DHT22;5033;46.310;11.214;2022-12-18T13:34:27;8.30;96.60
9987;DHT22;5033;46.310;11.214;2022-12-18T13:37:34;8.10;97.50
9987;DHT22;5033;46.310;11.214;2022-12-18T13:39:45;8.00;97.90
9987;DHT22;5033;46.310;11.214;2022-12-18T13:42:37;7.80;98.20
9987;DHT22;5033;46.310;11.214;2022-12-18T13:46:01;7.70;98.30
9987;DHT22;5033;46.310;11.214;2022-12-18T13:48:31;7.20;99.00
9987;DHT22;5033;46.310;11.214;2022-12-18T13:51:02;7.00;99.90
9987;DHT22;5033;46.310;11.214;2022-12-18T13:53:34;6.70;99.90
9987;DHT22;5033;46.310;11.214;2022-12-18T13:56:03;6.50;99.90
9987;DHT22;5033;46.310;11.214;2022-12-18T13:58:31;6.30;99.90
9987;DHT22;5033;46.310;11.214;2022-12-18T14:00:58;6.20;99.90
9987;DHT22;5033;46.310;11.214;2022-12-18T14:03:30;6.10;99.90
9987;DHT22;5033;46.310;11.214;2022-12-18T14:06:03;6.00;99.90
9987;DHT22;5033;46.310;11.214;2022-12-18T14:08:38;6.00;99.90
9987;DHT22;5033;46.310;11.214;2022-12-18T14:11:07;5.90;99.90
9987;DHT22;5033;46.310;11.214;2022-12-18T14:13:39;5.90;99.90
9987;DHT22;5033;46.310;11.214;2022-12-18T14:16:13;5.90;99.90
9987;DHT22;5033;46.310;11.214;2022-12-18T14:18:45;5.90;99.90
9987;DHT22;5033;46.310;11.214;2022-12-18T14:21:21;5.90;99.90
9987;DHT22;5033;46.310;11.214;2022-12-18T14:24:03;5.80;99.90
9987;DHT22;5033;46.310;11.214;2022-12-18T14:26:32;5.70;99.90
9987;DHT22;5033;46.310;11.214;2022-12-18T14:29:01;5.70;99.90
9987;DHT22;5033;46.310;11.214;2022-12-18T14:31:44;5.70;99.90
9987;DHT22;5033;46.310;11.214;2022-12-18T14:34:17;5.60;99.90
9987;DHT22;5033;46.310;11.214;2022-12-18T14:36:52;5.40;99.90
9987;DHT22;5033;46.310;11.214;2022-12-18T14:39:21;5.30;99.90
9987;DHT22;5033;46.310;11.214;2022-12-18T14:41:51;5.20;99.90
9987;DHT22;5033;46.310;11.214;2022-12-18T14:44:18;5.10;99.90
9987;DHT22;5033;46.310;11.214;2022-12-18T14:46:47;5.00;99.90
9987;DHT22;5033;46.310;11.214;2022-12-18T14:49:24;4.80;99.90
9987;DHT22;5033;46.310;11.214;2022-12-18T14:51:53;4.70;99.90
9987;DHT22;5033;46.310;11.214;2022-12-18T14:54:22;4.60;99.90
9987;DHT22;5033;46.310;11.214;2022-12-18T14:56:56;4.50;99.90
9987;DHT22;5033;46.310;11.214;2022-12-18T14:59:27;4.50;99.90
9987;DHT22;5033;46.310;11.214;2022-12-18T15:01:59;4.40;99.90
9987;DHT22;5033;46.310;11.214;2022-12-18T15:04:31;4.50;99.90
9987;DHT22;5033;46.310;11.214;2022-12-18T15:07:11;4.40;99.90
9987;DHT22;5033;46.310;11.214;2022-12-18T15:09:43;4.30;99.90
9987;DHT22;5033;46.310;11.214;2022-12-18T15:12:24;4.20;99.90
9987;DHT22;5033;46.310;11.214;2022-12-18T15:14:53;4.10;99.90
9987;DHT22;5033;46.310;11.214;2022-12-18T15:17:23;4.00;99.90
9987;DHT22;5033;46.310;11.214;2022-12-18T15:19:57;3.90;99.90
9987;DHT22;5033;46.310;11.214;2022-12-18T15:22:27;3.80;99.90
9987;DHT22;5033;46.310;11.214;2022-12-18T15:24:56;3.70;99.90
9987;DHT22;5033;46.310;11.214;2022-12-18T15:27:27;3.60;99.90
9987;DHT22;5033;46.310;11.214;2022-12-18T15:30:18;3.50;99.90
9987;DHT22;5033;46.310;11.214;2022-12-18T15:32:47;3.50;99.90
9987;DHT22;5033;46.310;11.214;2022-12-18T15:35:19;3.40;99.90
9987;DHT22;5033;46.310;11.214;2022-12-18T15:37:47;3.30;99.90
9987;DHT22;5033;46.310;11.214;2022-12-18T15:40:15;3.30;99.90
9987;DHT22;5033;46.310;11.214;2022-12-18T15:42:43;3.30;99.90
9987;DHT22;5033;46.310;11.214;2022-12-18T15:45:28;3.40;99.90
9987;DHT22;5033;46.310;11.214;2022-12-18T15:47:56;3.40;99.90
9987;DHT22;5033;46.310;11.214;2022-12-18T15:50:25;3.30;99.90
9987;DHT22;5033;46.310;11.214;2022-12-18T15:52:54;3.30;99.90
9987;DHT22;5033;46.310;11.214;2022-12-18T15:55:23;3.20;99.90
9987;DHT22;5033;46.310;11.214;2022-12-18T15:58:10;3.20;99.90
9987;DHT22;5033;46.310;11.214;2022-12-18T16:00:38;3.10;99.90
9987;DHT22;5033;46.310;11.214;2022-12-18T16:03:06;3.00;99.90
9987;DHT22;5033;46.310;11.214;2022-12-18T16:05:36;3.00;99.90
9987;DHT22;5033;46.310;11.214;2022-12-18T16:08:04;3.00;99.90
9987;DHT22;5033;46.310;11.214;2022-12-18T16:10:31;3.00;99.90
9987;DHT22;5033;46.310;11.214;2022-12-18T16:12:59;3.00;99.90
9987;DHT22;5033;46.310;11.214;2022-12-18T16:15:26;2.90;99.90
9987;DHT22;5033;46.310;11.214;2022-12-18T16:17:53;2.80;99.90
9987;DHT22;5033;46.310;11.214;2022-12-18T16:20:22;2.80;99.90